KLGB/LGB METAR and TAF weather

Enter ICAO airport designator
Station Type Date Time Source
KLGB METAR 2021/03/01 21:53 UTC NOAA

KLGB 012153Z 18009KT 10SM CLR 22/M16 A3010 RMK AO2 SLP193 T02171156


Station Type Date Time Source
KLGB Decoded METAR 2021/03/01 21:53 UTC NOAA

LONG BEACH AIRPORT, CA, United States (KLGB) 33-49N 118-09W 10M
Mar 01, 2021 - 04:53 PM EST / 2021.03.01 2153 UTC
Wind: from the S (180 degrees) at 10 MPH (9 KT):0
Visibility: 10 mile(s):0
Sky conditions: clear
Temperature: 71.1 F (21.7 C)
Dew Point: 3.9 F (-15.6 C)
Relative Humidity: 7%
Pressure (altimeter): 30.1 in. Hg (1019 hPa)
ob: KLGB 012153Z 18009KT 10SM CLR 22/M16 A3010 RMK AO2 SLP193 T02171156
cycle: 22

Station Type Date Time Source
KLGB TAF 2021/03/01 18:46 UTC NOAA

TAF KLGB 011744Z 0118/0218 07005KT P6SM SKC
FM012000 19008KT P6SM SCT250
FM020200 30008KT P6SM SCT250
FM020500 VRB03KT P6SM SKC

Example: see airport list